Moose Factory, Canada
Current Conditions -  °F | °C
As of 9:00 AM on Saturday 25 Oct 2014 (Local Time) from CYMO Reporting Station
Light Rain Light Rain  
Wind Chill: 45°   Ceiling: 600
Heat Index: 48°   Visibility: 9mi
Dew Point: 46°   Wind: 7mph
Humidity: 93%   Direction: 180°S
Pressure: 29.27"   Gusts: NA
Location:  51.26°N, 80.6°W
Report Text: CYMO 251300Z AUTO 18006KT 9SM -RA OVC006 09/08 A2927 RMK PCPN 0.8MM PAST HR SLP913
Loading
Personal Weather Stations






























Interactive Weather Map
Tropical Storm Tracking
New forecast layout! Learn more

10-Day Weather Forecast

Advertisements
Track Severe Weather on mobile